createdAt,value
2023-09-18T00:02:46.094Z,14.76
2023-09-18T00:05:49.866Z,14.76
2023-09-18T00:08:52.926Z,14.74
2023-09-18T00:11:55.767Z,14.73
2023-09-18T00:14:58.839Z,14.71
2023-09-18T00:18:02.770Z,14.67
2023-09-18T00:21:06.001Z,14.67
2023-09-18T00:24:09.567Z,14.67
2023-09-18T00:27:15.086Z,14.64
2023-09-18T00:30:17.910Z,14.59
2023-09-18T00:33:21.056Z,14.57
2023-09-18T00:36:23.981Z,14.52
2023-09-18T00:39:27.582Z,14.57
2023-09-18T00:42:30.255Z,14.64
2023-09-18T00:45:33.052Z,14.70
2023-09-18T00:48:35.829Z,14.86
2023-09-18T00:51:41.753Z,15.00
2023-09-18T00:54:44.953Z,15.16
2023-09-18T00:57:47.761Z,15.37
2023-09-18T01:00:52.724Z,15.65
2023-09-18T01:03:55.746Z,15.59
2023-09-18T01:07:03.757Z,15.47
2023-09-18T01:10:06.931Z,15.42
2023-09-18T01:13:15.041Z,15.44
2023-09-18T01:16:29.218Z,15.37
2023-09-18T01:19:43.000Z,15.33
2023-09-18T01:22:45.898Z,15.29
2023-09-18T01:25:48.607Z,15.27
2023-09-18T01:28:51.501Z,15.21
2023-09-18T01:31:55.466Z,15.19
2023-09-18T01:34:59.374Z,15.17
2023-09-18T01:38:02.576Z,15.16
2023-09-18T01:41:05.666Z,15.12
2023-09-18T01:44:11.207Z,15.09
2023-09-18T01:47:20.868Z,15.04
2023-09-18T01:50:23.681Z,15.04
2023-09-18T01:53:27.777Z,14.99
2023-09-18T01:56:30.572Z,14.94
2023-09-18T01:59:33.303Z,14.93
2023-09-18T02:02:51.013Z,14.91
2023-09-18T02:06:00.312Z,14.87
2023-09-18T02:09:05.022Z,14.85
2023-09-18T02:12:08.067Z,14.83
2023-09-18T02:15:12.404Z,14.85
2023-09-18T02:18:17.169Z,14.75
2023-09-18T02:21:23.652Z,14.70
2023-09-18T02:24:27.753Z,14.64
2023-09-18T02:27:33.486Z,14.64
2023-09-18T02:30:36.178Z,14.61
2023-09-18T02:33:39.495Z,14.63
2023-09-18T02:36:42.138Z,14.60
2023-09-18T02:39:44.777Z,14.59
2023-09-18T02:42:47.467Z,14.58
2023-09-18T02:45:50.904Z,14.52
2023-09-18T02:48:54.067Z,14.48
2023-09-18T02:51:56.915Z,14.41
2023-09-18T02:54:59.886Z,14.39
2023-09-18T02:58:02.552Z,14.30
2023-09-18T03:01:06.692Z,14.32
2023-09-18T03:04:09.394Z,14.28
2023-09-18T03:07:14.612Z,14.27
2023-09-18T03:10:19.872Z,14.26
2023-09-18T03:13:23.229Z,14.23
2023-09-18T03:16:25.982Z,14.23
2023-09-18T03:19:28.736Z,14.20
2023-09-18T03:22:31.466Z,14.17
2023-09-18T03:25:49.733Z,14.18
2023-09-18T03:28:54.767Z,14.18
2023-09-18T03:31:59.540Z,14.16
2023-09-18T03:35:02.334Z,14.14
2023-09-18T03:38:05.039Z,14.09
2023-09-18T03:41:07.768Z,14.10
2023-09-18T03:44:11.499Z,14.10
2023-09-18T03:47:14.207Z,14.01
2023-09-18T03:50:17.181Z,14.01
2023-09-18T03:53:19.979Z,13.99
2023-09-18T03:56:23.586Z,13.99
2023-09-18T03:59:26.338Z,13.97
2023-09-18T04:02:29.381Z,14.00
2023-09-18T04:05:32.289Z,14.02
2023-09-18T04:08:35.065Z,14.06
2023-09-18T04:11:37.857Z,14.10
2023-09-18T04:14:43.739Z,14.17
2023-09-18T04:17:46.544Z,14.20
2023-09-18T04:20:49.605Z,14.16
2023-09-18T04:23:57.009Z,14.19
2023-09-18T04:26:59.837Z,14.22
2023-09-18T04:30:02.560Z,14.18
2023-09-18T04:33:05.601Z,14.20
2023-09-18T04:36:09.301Z,14.23
2023-09-18T04:39:12.056Z,14.24
2023-09-18T04:42:14.821Z,14.25
2023-09-18T04:45:17.678Z,14.29
2023-09-18T04:48:20.542Z,14.35
2023-09-18T04:51:23.355Z,14.35
2023-09-18T04:54:26.072Z,14.34
2023-09-18T04:57:28.905Z,14.36
2023-09-18T05:00:33.035Z,14.39
2023-09-18T05:03:36.657Z,14.47
2023-09-18T05:06:40.865Z,14.52
2023-09-18T05:09:43.740Z,14.59
2023-09-18T05:12:46.977Z,14.61
2023-09-18T05:15:49.717Z,14.65
2023-09-18T05:18:52.671Z,14.82
2023-09-18T05:21:55.779Z,15.17
2023-09-18T05:24:58.497Z,15.49
2023-09-18T05:28:02.286Z,15.80
2023-09-18T05:31:04.990Z,16.12
2023-09-18T05:34:07.894Z,16.27
2023-09-18T05:37:10.644Z,16.44
2023-09-18T05:40:14.394Z,16.48
2023-09-18T05:43:17.242Z,16.65
2023-09-18T05:46:20.017Z,16.81
2023-09-18T05:49:22.823Z,16.89
2023-09-18T05:52:26.593Z,17.07
2023-09-18T05:55:29.361Z,17.21
2023-09-18T05:58:36.803Z,17.34
2023-09-18T06:01:39.627Z,17.47
2023-09-18T06:04:42.289Z,17.59
2023-09-18T06:07:45.941Z,17.70
2023-09-18T06:10:48.658Z,17.81
2023-09-18T06:13:51.387Z,17.87
2023-09-18T06:16:54.196Z,17.98
2023-09-18T06:19:57.096Z,18.14
2023-09-18T06:22:59.764Z,18.16
2023-09-18T06:26:06.082Z,18.26
2023-09-18T06:29:10.559Z,18.38
2023-09-18T06:32:13.860Z,18.52
2023-09-18T06:35:16.562Z,18.65
2023-09-18T06:38:19.346Z,18.75
2023-09-18T06:41:22.267Z,18.84
2023-09-18T06:44:25.380Z,18.97
2023-09-18T06:47:28.255Z,19.01
2023-09-18T06:50:32.222Z,19.09
2023-09-18T06:53:35.037Z,19.18
2023-09-18T06:56:37.905Z,19.31
2023-09-18T06:59:40.731Z,19.44
2023-09-18T07:02:43.734Z,19.62
2023-09-18T07:05:47.537Z,19.87
2023-09-18T07:08:54.729Z,19.99
2023-09-18T07:11:57.815Z,20.11
2023-09-18T07:15:07.616Z,20.39
2023-09-18T07:18:15.519Z,20.47
2023-09-18T07:21:18.458Z,20.62
2023-09-18T07:24:21.939Z,20.80
2023-09-18T07:27:24.727Z,20.99
2023-09-18T07:30:28.490Z,20.94
2023-09-18T07:33:31.477Z,21.04
2023-09-18T07:36:34.330Z,21.32
2023-09-18T07:39:37.653Z,21.36
2023-09-18T07:42:40.384Z,21.61
2023-09-18T07:45:43.333Z,21.78
2023-09-18T07:48:46.100Z,21.71
2023-09-18T07:51:48.876Z,21.55
2023-09-18T07:54:51.677Z,21.78
2023-09-18T07:57:55.007Z,21.84
2023-09-18T08:01:01.003Z,22.01
2023-09-18T08:04:04.511Z,22.27
2023-09-18T08:07:08.262Z,22.16
2023-09-18T08:10:11.558Z,22.41
2023-09-18T08:13:15.940Z,22.49
2023-09-18T08:16:19.286Z,22.56
2023-09-18T08:19:22.334Z,22.70
2023-09-18T08:22:28.867Z,23.04
2023-09-18T08:25:38.288Z,23.46
2023-09-18T08:28:45.066Z,23.15
2023-09-18T08:31:48.169Z,23.36
2023-09-18T08:34:50.923Z,23.40
2023-09-18T08:37:57.207Z,23.91
2023-09-18T08:41:00.645Z,23.78
2023-09-18T08:44:09.012Z,23.60
2023-09-18T08:47:12.914Z,24.01
2023-09-18T08:50:16.859Z,24.25
2023-09-18T08:53:23.005Z,24.20
2023-09-18T08:56:25.874Z,24.24
2023-09-18T08:59:29.180Z,24.29
2023-09-18T09:02:32.139Z,24.42
2023-09-18T09:05:35.192Z,24.62
2023-09-18T09:08:38.038Z,24.98
2023-09-18T09:11:41.185Z,24.93
2023-09-18T09:15:04.169Z,24.88
2023-09-18T09:18:09.083Z,25.49
2023-09-18T09:21:12.015Z,25.51
2023-09-18T09:24:19.508Z,25.32
2023-09-18T09:27:22.326Z,25.16
2023-09-18T09:30:29.549Z,25.20
2023-09-18T09:33:32.878Z,25.23
2023-09-18T09:36:35.826Z,25.26
2023-09-18T09:39:52.154Z,25.70
2023-09-18T09:43:01.793Z,25.95
2023-09-18T09:46:05.494Z,26.19
2023-09-18T09:49:08.349Z,25.99
2023-09-18T09:52:22.954Z,26.31
2023-09-18T09:55:38.998Z,26.43
2023-09-18T09:58:46.159Z,26.17
2023-09-18T10:01:51.640Z,26.22
2023-09-18T10:04:54.922Z,26.61
2023-09-18T10:08:02.370Z,26.44
2023-09-18T10:11:13.424Z,26.33
2023-09-18T10:14:40.470Z,26.48
2023-09-18T10:17:47.945Z,26.73
2023-09-18T10:20:53.299Z,26.70
2023-09-18T10:24:20.182Z,27.14
2023-09-18T10:27:24.362Z,27.37
2023-09-18T10:30:28.223Z,27.00
2023-09-18T10:33:31.698Z,27.33
2023-09-18T10:36:35.937Z,27.27
2023-09-18T10:39:43.084Z,27.47
2023-09-18T10:42:47.545Z,28.04
2023-09-18T10:45:52.485Z,27.57
2023-09-18T10:48:56.103Z,27.63
2023-09-18T10:52:00.286Z,28.23
2023-09-18T10:55:06.445Z,27.82
2023-09-18T10:58:09.199Z,27.82
2023-09-18T11:01:14.763Z,27.81
2023-09-18T11:04:21.970Z,28.05
2023-09-18T11:07:26.816Z,27.94
2023-09-18T11:10:29.648Z,28.20
2023-09-18T11:13:36.623Z,27.80
2023-09-18T11:16:40.550Z,27.64
2023-09-18T11:19:46.129Z,27.64
2023-09-18T11:23:17.806Z,28.03
2023-09-18T11:26:21.844Z,28.33
2023-09-18T11:29:24.993Z,28.32
2023-09-18T11:32:43.632Z,28.55
2023-09-18T11:35:54.048Z,29.57
2023-09-18T11:39:05.205Z,29.65
2023-09-18T11:42:09.014Z,29.94
2023-09-18T11:45:18.655Z,29.55
2023-09-18T11:48:22.058Z,28.96
2023-09-18T11:51:26.106Z,28.71
2023-09-18T11:54:30.406Z,28.58
2023-09-18T11:57:37.210Z,29.58
2023-09-18T12:00:47.284Z,29.78
2023-09-18T12:04:03.019Z,29.94
2023-09-18T12:07:06.755Z,30.77
2023-09-18T12:10:11.554Z,30.56
2023-09-18T12:13:14.608Z,29.96
2023-09-18T12:16:18.589Z,30.59
2023-09-18T12:19:21.303Z,29.60
2023-09-18T12:22:31.040Z,29.26
2023-09-18T12:25:33.785Z,29.73
2023-09-18T12:28:37.606Z,30.18
2023-09-18T12:31:40.706Z,30.10
2023-09-18T12:34:43.589Z,30.90
2023-09-18T12:37:46.595Z,31.04
2023-09-18T12:40:49.804Z,30.41
2023-09-18T12:43:52.677Z,30.22
2023-09-18T12:46:55.701Z,30.15
2023-09-18T12:50:04.944Z,30.82
2023-09-18T12:53:18.445Z,30.41
2023-09-18T12:56:21.199Z,29.63
2023-09-18T12:59:28.440Z,29.37
2023-09-18T13:02:32.064Z,29.31
2023-09-18T13:05:35.000Z,29.30
2023-09-18T13:08:38.473Z,28.87
2023-09-18T13:12:02.253Z,28.96
2023-09-18T13:15:10.193Z,28.64
2023-09-18T13:18:13.714Z,27.98
2023-09-18T13:21:16.542Z,27.58
2023-09-18T13:24:32.651Z,27.74
2023-09-18T13:27:35.538Z,27.69
2023-09-18T13:30:40.548Z,27.73
2023-09-18T13:33:46.444Z,28.06
2023-09-18T13:36:49.334Z,28.14
2023-09-18T13:39:52.055Z,28.49
2023-09-18T13:42:54.957Z,28.33
2023-09-18T13:46:00.086Z,28.38
2023-09-18T13:49:05.871Z,28.26
2023-09-18T13:52:08.573Z,28.16
2023-09-18T13:55:11.297Z,28.26
2023-09-18T13:58:13.954Z,28.32
2023-09-18T14:01:17.393Z,28.13
2023-09-18T14:04:20.968Z,28.60
2023-09-18T14:07:23.794Z,28.34
2023-09-18T14:10:26.763Z,28.11
2023-09-18T14:13:32.034Z,28.09
2023-09-18T14:16:35.656Z,28.29
2023-09-18T14:19:41.663Z,28.08
2023-09-18T14:22:44.315Z,28.70
2023-09-18T14:25:47.241Z,28.43
2023-09-18T14:28:50.099Z,28.56
2023-09-18T14:31:52.987Z,28.24
2023-09-18T14:34:55.821Z,28.03
2023-09-18T14:37:58.628Z,28.01
2023-09-18T14:41:04.278Z,27.99
2023-09-18T14:44:11.181Z,28.35
2023-09-18T14:47:14.219Z,28.66
2023-09-18T14:50:20.089Z,29.25
2023-09-18T14:53:22.921Z,29.26
2023-09-18T14:56:26.962Z,29.15
2023-09-18T14:59:41.457Z,28.71
2023-09-18T15:02:45.654Z,28.25
2023-09-18T15:05:48.756Z,28.10
2023-09-18T15:08:51.846Z,28.28
2023-09-18T15:11:54.746Z,29.12
2023-09-18T15:14:58.824Z,29.43
2023-09-18T15:18:01.669Z,28.59
2023-09-18T15:21:04.741Z,28.26
2023-09-18T15:24:08.936Z,28.59
2023-09-18T15:27:11.962Z,29.19
2023-09-18T15:30:16.318Z,28.56
2023-09-18T15:33:19.376Z,28.11
2023-09-18T15:36:24.411Z,28.08
2023-09-18T15:39:28.710Z,27.90
2023-09-18T15:42:31.535Z,27.49
2023-09-18T15:45:39.019Z,27.32
2023-09-18T15:48:41.925Z,27.03
2023-09-18T15:51:44.784Z,26.79
2023-09-18T15:54:47.525Z,26.79
2023-09-18T15:57:50.805Z,26.67
2023-09-18T16:00:53.873Z,26.49
2023-09-18T16:03:58.292Z,26.39
2023-09-18T16:07:01.300Z,26.34
2023-09-18T16:10:05.722Z,26.27
2023-09-18T16:13:08.539Z,26.21
2023-09-18T16:16:14.865Z,26.13
2023-09-18T16:19:18.003Z,26.14
2023-09-18T16:22:27.441Z,26.14
2023-09-18T16:25:34.993Z,26.04
2023-09-18T16:28:38.101Z,25.96
2023-09-18T16:31:42.251Z,25.93
2023-09-18T16:34:45.100Z,25.90
2023-09-18T16:37:48.073Z,25.82
2023-09-18T16:40:57.137Z,25.76
2023-09-18T16:44:00.086Z,25.70
2023-09-18T16:47:03.057Z,25.70
2023-09-18T16:50:06.573Z,25.59
2023-09-18T16:53:12.062Z,25.41
2023-09-18T16:56:15.990Z,25.39
2023-09-18T16:59:18.708Z,25.37
2023-09-18T17:02:22.310Z,25.41
2023-09-18T17:05:25.243Z,25.30
2023-09-18T17:08:28.620Z,25.21
2023-09-18T17:11:33.460Z,25.11
2023-09-18T17:14:38.080Z,25.04
2023-09-18T17:17:43.941Z,25.12
2023-09-18T17:20:48.941Z,24.98
2023-09-18T17:23:52.302Z,24.82
2023-09-18T17:26:55.336Z,24.72
2023-09-18T17:29:59.976Z,24.68
2023-09-18T17:33:05.295Z,24.62
2023-09-18T17:36:12.124Z,24.53
2023-09-18T17:39:14.938Z,24.41
2023-09-18T17:42:17.820Z,24.30
2023-09-18T17:45:20.750Z,24.23
2023-09-18T17:48:23.446Z,24.12
2023-09-18T17:51:26.299Z,24.13
2023-09-18T17:54:29.204Z,24.12
2023-09-18T17:57:35.152Z,24.14
2023-09-18T18:00:39.424Z,24.12
2023-09-18T18:03:44.927Z,24.07
2023-09-18T18:06:55.131Z,24.21
2023-09-18T18:09:58.749Z,24.17
2023-09-18T18:13:02.795Z,24.15
2023-09-18T18:16:07.344Z,24.13
2023-09-18T18:19:10.599Z,24.03
2023-09-18T18:22:13.552Z,24.02
2023-09-18T18:25:17.415Z,23.91
2023-09-18T18:28:20.295Z,23.90
2023-09-18T18:31:23.286Z,23.88
2023-09-18T18:34:26.272Z,23.83
2023-09-18T18:37:30.464Z,23.76
2023-09-18T18:40:41.935Z,23.72
2023-09-18T18:43:45.361Z,23.64
2023-09-18T18:46:50.659Z,23.57
2023-09-18T18:49:53.813Z,23.50
2023-09-18T18:52:56.632Z,23.44
2023-09-18T18:55:59.764Z,23.35
2023-09-18T18:59:02.845Z,23.24
2023-09-18T19:02:06.325Z,23.19
2023-09-18T19:05:12.739Z,23.14
2023-09-18T19:08:15.620Z,23.09
2023-09-18T19:11:18.714Z,23.06
2023-09-18T19:14:24.364Z,23.01
2023-09-18T19:17:27.823Z,23.01
2023-09-18T19:20:30.605Z,23.06
2023-09-18T19:23:36.733Z,23.12
2023-09-18T19:26:44.708Z,23.17
2023-09-18T19:29:51.664Z,23.32
2023-09-18T19:32:54.957Z,23.29
2023-09-18T19:35:59.019Z,23.31
2023-09-18T19:39:01.986Z,23.44
2023-09-18T19:42:07.344Z,23.55
2023-09-18T19:45:10.636Z,23.48
2023-09-18T19:48:13.834Z,23.59
2023-09-18T19:51:16.579Z,23.57
2023-09-18T19:54:24.414Z,23.58
2023-09-18T19:57:27.361Z,23.55
2023-09-18T20:00:30.693Z,23.47
2023-09-18T20:03:34.517Z,23.44
2023-09-18T20:06:37.638Z,23.42
2023-09-18T20:09:40.514Z,23.35
2023-09-18T20:12:44.743Z,23.55
2023-09-18T20:15:47.445Z,23.46
2023-09-18T20:18:51.216Z,23.47
2023-09-18T20:21:54.761Z,23.40
2023-09-18T20:24:57.427Z,23.41
2023-09-18T20:28:00.185Z,23.37
2023-09-18T20:31:04.033Z,23.39
2023-09-18T20:34:07.274Z,23.46
2023-09-18T20:37:10.500Z,23.41
2023-09-18T20:40:13.506Z,23.35
2023-09-18T20:43:16.199Z,23.32
2023-09-18T20:46:18.920Z,23.35
2023-09-18T20:49:23.405Z,23.36
2023-09-18T20:52:26.926Z,23.25
2023-09-18T20:55:30.618Z,23.27
2023-09-18T20:58:37.888Z,23.30
2023-09-18T21:01:42.217Z,23.24
2023-09-18T21:04:44.983Z,23.21
2023-09-18T21:07:48.032Z,23.18
2023-09-18T21:10:51.010Z,23.20
2023-09-18T21:13:53.666Z,23.12
2023-09-18T21:16:56.759Z,23.07
2023-09-18T21:19:59.415Z,23.03
2023-09-18T21:23:04.421Z,23.00
2023-09-18T21:26:07.556Z,22.96
2023-09-18T21:29:10.175Z,22.96
2023-09-18T21:32:12.866Z,22.91
2023-09-18T21:35:15.667Z,22.92
2023-09-18T21:38:19.332Z,22.87
2023-09-18T21:41:24.221Z,22.90
2023-09-18T21:44:26.971Z,22.90
2023-09-18T21:47:29.855Z,22.85
2023-09-18T21:50:32.571Z,22.78
2023-09-18T21:56:40.879Z,22.66
2023-09-18T21:59:46.490Z,22.60
2023-09-18T22:02:49.324Z,22.52
2023-09-18T22:05:52.324Z,22.47
2023-09-18T22:08:55.450Z,22.40
2023-09-18T22:11:59.936Z,22.39
2023-09-18T22:15:02.758Z,22.32
2023-09-18T22:18:06.730Z,22.28
2023-09-18T22:21:10.635Z,22.24
2023-09-18T22:24:18.835Z,22.16
2023-09-18T22:27:21.601Z,22.15
2023-09-18T22:30:24.248Z,22.11
2023-09-18T22:33:28.578Z,22.12
2023-09-18T22:36:31.607Z,22.09
2023-09-18T22:39:53.303Z,22.10
2023-09-18T22:43:33.850Z,22.08
2023-09-18T22:47:14.801Z,22.07
2023-09-18T22:50:56.997Z,22.07
2023-09-18T22:53:59.459Z,21.99
2023-09-18T22:57:02.170Z,21.99
2023-09-18T23:00:07.829Z,21.97
2023-09-18T23:03:11.419Z,21.99
2023-09-18T23:06:14.236Z,21.95
2023-09-18T23:09:18.125Z,21.93
2023-09-18T23:12:23.401Z,21.89
2023-09-18T23:15:26.260Z,21.88
2023-09-18T23:18:29.762Z,21.87
2023-09-18T23:21:32.990Z,21.82
2023-09-18T23:24:35.813Z,21.79
2023-09-18T23:27:43.234Z,21.77
2023-09-18T23:30:45.962Z,21.72
2023-09-18T23:33:48.677Z,21.69
2023-09-18T23:36:54.684Z,21.63
2023-09-18T23:39:59.795Z,21.65
2023-09-18T23:43:08.577Z,21.62
2023-09-18T23:46:15.545Z,21.61
2023-09-18T23:49:21.614Z,21.60
2023-09-18T23:52:26.112Z,21.53
2023-09-18T23:55:28.825Z,21.51
2023-09-18T23:58:31.451Z,21.48
